Guthrie, Indiana
Current Conditions -  °F | °C
As of 8:53 AM on Thursday 27 Nov 2014 (Local Time) from KBMG Reporting Station
Few Clouds Few Clouds  
Wind Chill: 19°   Ceiling: Unl
Heat Index: 27°   Visibility: 7mi
Dew Point: 21°   Wind: 8mph
Humidity: 78%   Direction: 280°W
Pressure: 30.3"   Gusts: NA
Location:  38.8737°N, 86.4563°W
Report Text: KBMG 271353Z 28007KT 7SM FEW047 M03/M06 A3030 RMK AO2 SLP267 T10281061
Loading
Personal Weather Stations






























Interactive Weather Map New forecast layout! Learn more

10-Day Weather Forecast

Advertisements
Track Severe Weather on mobile